Time;durP1;ratioP1;P1;durP2;ratioP2;P2;SDS_P1;SDS_P2;PMS_P1;PMS_P2;Temp;Humidity;BMP_temperature;BMP_pressure;BME280_temperature;BME280_humidity;BME280_pressure;Samples;Min_cycle;Max_cycle;Signal;HPM_P1;HPM_P2
2021/05/25 00:01:43;;;;;;;1.50;1.03;;;10.90;94.60;;;;;;5006505;28;20486;-76
2021/05/25 00:04:09;;;;;;;1.50;1.00;;;10.80;94.90;;;;;;5013552;28;20702;-77
2021/05/25 00:06:36;;;;;;;1.50;1.10;;;10.80;95.10;;;;;;5006960;28;20479;-77
2021/05/25 00:09:05;;;;;;;1.50;1.10;;;10.70;95.10;;;;;;5016103;28;20538;-76
2021/05/25 00:11:31;;;;;;;1.50;1.10;;;10.70;95.30;;;;;;5006611;28;20475;-77
2021/05/25 00:13:58;;;;;;;1.50;1.10;;;10.70;95.40;;;;;;5020817;28;20468;-78
2021/05/25 00:16:24;;;;;;;1.50;1.10;;;10.70;95.40;;;;;;5004218;28;20793;-77
2021/05/25 00:18:52;;;;;;;1.50;1.00;;;10.60;95.50;;;;;;5020513;28;20466;-76
2021/05/25 00:21:18;;;;;;;1.50;1.10;;;10.60;95.60;;;;;;5003611;28;20487;-76
2021/05/25 00:23:44;;;;;;;1.50;1.10;;;10.60;95.60;;;;;;5018737;28;20467;-77
2021/05/25 00:26:11;;;;;;;1.50;1.10;;;10.50;95.40;;;;;;5002701;28;20475;-76
2021/05/25 00:28:37;;;;;;;1.50;1.10;;;10.50;95.50;;;;;;5020768;28;20467;-77
2021/05/25 00:31:04;;;;;;;1.50;1.10;;;10.50;95.60;;;;;;5002562;28;20491;-77
2021/05/25 00:33:30;;;;;;;1.50;1.20;;;10.50;95.70;;;;;;5019841;28;20467;-76
2021/05/25 00:35:56;;;;;;;1.50;1.10;;;10.50;95.60;;;;;;4999678;28;20494;-77
2021/05/25 00:38:23;;;;;;;1.50;1.10;;;10.40;95.60;;;;;;5020943;28;20460;-77
2021/05/25 00:40:49;;;;;;;1.50;1.10;;;10.50;95.70;;;;;;5000032;28;20982;-76
2021/05/25 00:43:16;;;;;;;1.50;1.10;;;10.50;95.50;;;;;;5021928;28;20538;-76
2021/05/25 00:45:43;;;;;;;1.50;1.10;;;10.50;95.60;;;;;;5008866;28;20496;-76
2021/05/25 00:48:10;;;;;;;1.50;1.10;;;10.40;95.40;;;;;;4998566;28;20476;-77
2021/05/25 00:50:37;;;;;;;1.50;1.10;;;10.40;95.20;;;;;;5012119;28;21141;-77
2021/05/25 00:53:04;;;;;;;1.50;1.10;;;10.50;95.10;;;;;;5013448;28;20558;-77
2021/05/25 00:55:33;;;;;;;1.50;1.00;;;10.50;95.10;;;;;;5009612;28;20491;-76
2021/05/25 00:58:02;;;;;;;1.50;1.00;;;10.50;94.80;;;;;;5014689;28;20483;-77
2021/05/25 01:00:32;;;;;;;1.50;1.10;;;10.50;94.50;;;;;;5008640;28;20979;-75
2021/05/25 01:02:59;;;;;;;1.50;1.00;;;10.50;94.50;;;;;;5011133;28;20592;-76
2021/05/25 01:05:25;;;;;;;1.50;1.10;;;10.40;94.40;;;;;;5009641;28;20506;-78
2021/05/25 01:07:51;;;;;;;1.50;1.10;;;10.40;94.40;;;;;;5011555;28;20994;-78
2021/05/25 01:10:20;;;;;;;1.50;1.20;;;10.40;94.30;;;;;;5009399;28;20460;-76
2021/05/25 01:12:52;;;;;;;1.50;1.10;;;10.30;94.40;;;;;;5012105;28;20990;-76
2021/05/25 01:15:19;;;;;;;1.50;1.10;;;10.30;94.40;;;;;;5008792;28;21118;-78
2021/05/25 01:17:47;;;;;;;1.50;1.10;;;10.20;94.60;;;;;;5013024;28;20928;-77
2021/05/25 01:20:15;;;;;;;1.50;1.03;;;10.10;94.40;;;;;;5007963;28;20476;-76
2021/05/25 01:22:42;;;;;;;1.50;1.10;;;10.10;94.40;;;;;;5008565;28;20495;-77
2021/05/25 01:25:10;;;;;;;1.50;1.10;;;10.10;94.50;;;;;;5013417;28;20986;-78
2021/05/25 01:27:37;;;;;;;1.50;1.20;;;10.10;94.30;;;;;;5011896;28;20557;-77
2021/05/25 01:30:04;;;;;;;1.50;1.13;;;10.10;94.20;;;;;;5010379;28;20511;-77
2021/05/25 01:32:31;;;;;;;1.50;1.20;;;10.00;94.50;;;;;;4999995;28;20496;-77
2021/05/25 01:34:57;;;;;;;1.50;1.20;;;10.00;94.50;;;;;;5011310;28;20537;-78
2021/05/25 01:37:23;;;;;;;1.50;1.10;;;10.00;94.40;;;;;;5006839;28;20486;-76
2021/05/25 01:39:54;;;;;;;1.50;1.20;;;10.00;94.40;;;;;;5008059;28;20551;-78
2021/05/25 01:42:20;;;;;;;1.50;1.20;;;10.00;94.40;;;;;;5010087;28;20941;-77
2021/05/25 01:44:47;;;;;;;1.50;1.20;;;10.00;94.30;;;;;;5007018;28;20457;-76
2021/05/25 01:47:16;;;;;;;1.50;1.10;;;10.00;94.50;;;;;;5005028;28;21095;-78
2021/05/25 01:49:42;;;;;;;1.50;1.20;;;10.00;94.60;;;;;;5012025;28;20487;-76
2021/05/25 01:52:09;;;;;;;1.50;1.13;;;10.00;94.60;;;;;;5008126;28;20479;-78
2021/05/25 01:54:36;;;;;;;1.50;1.10;;;10.00;94.60;;;;;;5008481;28;20911;-77
2021/05/25 01:57:04;;;;;;;1.50;1.10;;;10.00;94.60;;;;;;5006134;28;20470;-77
2021/05/25 01:59:30;;;;;;;1.50;1.20;;;10.00;94.30;;;;;;5011016;28;20547;-77
2021/05/25 02:01:57;;;;;;;1.50;1.20;;;10.00;94.70;;;;;;4997865;28;20682;-76
2021/05/25 02:04:23;;;;;;;1.50;1.10;;;10.00;94.30;;;;;;5013474;28;20460;-76
2021/05/25 02:06:49;;;;;;;1.50;1.20;;;9.90;94.30;;;;;;5004079;28;20486;-77
2021/05/25 02:09:15;;;;;;;1.50;1.00;;;9.90;94.40;;;;;;5009364;28;20475;-79
2021/05/25 02:11:42;;;;;;;1.50;1.10;;;9.90;94.40;;;;;;5005878;28;20487;-77
2021/05/25 02:14:09;;;;;;;1.50;1.10;;;9.80;94.90;;;;;;5013478;28;20475;-76
2021/05/25 02:16:35;;;;;;;1.50;1.23;;;9.80;95.00;;;;;;5003740;28;20955;-78
2021/05/25 02:19:02;;;;;;;1.50;1.10;;;9.80;95.20;;;;;;5012113;28;20472;-77
2021/05/25 02:21:28;;;;;;;1.50;1.10;;;9.80;95.20;;;;;;5000021;28;20474;-76
2021/05/25 02:23:54;;;;;;;1.50;1.10;;;9.80;95.30;;;;;;5013269;28;20529;-76
2021/05/25 02:26:21;;;;;;;1.50;1.10;;;9.80;95.30;;;;;;5003056;28;20486;-76
2021/05/25 02:28:47;;;;;;;1.50;1.10;;;9.80;95.40;;;;;;5015014;28;20464;-78
2021/05/25 02:31:14;;;;;;;1.50;1.10;;;9.80;95.10;;;;;;5002211;28;20498;-78
2021/05/25 02:33:41;;;;;;;1.50;1.10;;;9.90;94.90;;;;;;5017092;28;20460;-77
2021/05/25 02:36:08;;;;;;;1.50;1.10;;;9.90;94.90;;;;;;5000085;28;21000;-78
2021/05/25 02:38:35;;;;;;;1.50;1.10;;;9.90;94.70;;;;;;5019889;28;20464;-77
2021/05/25 02:41:01;;;;;;;1.50;1.10;;;9.90;94.80;;;;;;4999348;28;20460;-77
2021/05/25 02:43:29;;;;;;;1.50;1.10;;;10.00;94.50;;;;;;5019401;28;20534;-77
2021/05/25 02:45:55;;;;;;;1.50;1.10;;;10.00;94.50;;;;;;5001574;28;20634;-77
2021/05/25 02:48:23;;;;;;;1.50;1.10;;;10.00;94.50;;;;;;5023632;28;20472;-75
2021/05/25 02:50:50;;;;;;;1.50;1.10;;;9.90;94.50;;;;;;4966096;28;1055479;-76
2021/05/25 02:53:17;;;;;;;1.50;1.10;;;9.90;94.50;;;;;;5022538;28;20232;-76
2021/05/25 02:55:44;;;;;;;1.50;1.10;;;9.90;94.60;;;;;;5010775;28;21013;-78
2021/05/25 02:58:11;;;;;;;1.50;1.10;;;9.90;94.80;;;;;;5014592;28;20480;-78
2021/05/25 03:00:40;;;;;;;1.50;1.00;;;9.90;94.90;;;;;;5012000;28;20952;-77
2021/05/25 03:03:07;;;;;;;1.50;1.10;;;9.90;95.00;;;;;;5014812;28;20511;-75
2021/05/25 03:05:35;;;;;;;1.50;1.20;;;9.90;95.10;;;;;;5009735;28;20862;-76
2021/05/25 03:08:04;;;;;;;1.50;1.03;;;9.90;95.40;;;;;;5016334;28;20479;-76
2021/05/25 03:10:33;;;;;;;1.50;1.07;;;9.90;95.20;;;;;;5011920;28;20464;-77
2021/05/25 03:13:00;;;;;;;1.50;1.20;;;9.90;95.40;;;;;;5015738;28;20487;-77
2021/05/25 03:15:28;;;;;;;1.50;1.10;;;10.00;95.40;;;;;;5011332;28;20488;-77
2021/05/25 03:17:55;;;;;;;1.50;1.10;;;10.00;95.40;;;;;;5014800;28;20487;-76
2021/05/25 03:20:22;;;;;;;1.50;1.20;;;10.00;95.60;;;;;;5012946;28;20967;-77
2021/05/25 03:22:50;;;;;;;1.50;1.10;;;10.00;96.10;;;;;;5017436;28;21025;-76
2021/05/25 03:25:17;;;;;;;1.50;1.10;;;10.00;96.70;;;;;;5011566;28;20491;-77
2021/05/25 03:27:44;;;;;;;1.50;1.10;;;10.00;97.30;;;;;;5015628;28;21017;-77
2021/05/25 03:30:13;;;;;;;1.50;1.13;;;10.00;97.40;;;;;;5010460;28;20464;-77
2021/05/25 03:32:40;;;;;;;1.50;1.20;;;9.90;98.00;;;;;;5013267;28;20475;-76
2021/05/25 03:35:08;;;;;;;1.50;1.10;;;9.90;97.90;;;;;;5009104;28;20834;-75
2021/05/25 03:37:36;;;;;;;1.50;1.20;;;9.90;98.00;;;;;;5012637;28;20521;-77
2021/05/25 03:40:04;;;;;;;1.50;1.10;;;9.90;98.20;;;;;;5012399;28;20470;-76
2021/05/25 03:42:30;;;;;;;1.50;1.10;;;9.90;98.20;;;;;;5011352;28;20476;-76
2021/05/25 03:44:57;;;;;;;1.50;1.10;;;9.90;98.20;;;;;;5012569;28;20479;-78
2021/05/25 03:47:24;;;;;;;1.50;1.10;;;9.80;98.20;;;;;;5014527;28;20982;-77
2021/05/25 03:49:51;;;;;;;1.50;1.10;;;9.90;98.20;;;;;;5013300;28;20506;-77
2021/05/25 03:52:17;;;;;;;1.50;1.10;;;9.80;98.20;;;;;;5011194;28;20499;-77
2021/05/25 03:54:48;;;;;;;1.50;1.20;;;9.80;98.20;;;;;;5013604;28;20534;-76
2021/05/25 03:57:25;;;;;;;1.50;1.10;;;9.80;98.20;;;;;;5009565;28;20507;-77
2021/05/25 03:59:51;;;;;;;1.50;1.10;;;9.70;98.20;;;;;;5007819;28;20838;-76
2021/05/25 04:02:17;;;;;;;1.50;1.23;;;9.70;98.20;;;;;;5012258;28;20483;-77
2021/05/25 04:04:43;;;;;;;1.50;1.10;;;9.70;98.20;;;;;;5013126;28;20224;-77
2021/05/25 04:07:09;;;;;;;1.50;1.10;;;9.70;98.20;;;;;;5008842;28;20475;-76
2021/05/25 04:09:36;;;;;;;1.50;1.10;;;9.70;98.20;;;;;;5012640;28;20958;-78
2021/05/25 04:12:02;;;;;;;1.50;1.30;;;9.70;98.20;;;;;;5012374;28;20774;-78
2021/05/25 04:14:29;;;;;;;1.50;1.10;;;9.70;98.20;;;;;;5022997;28;20855;-78
2021/05/25 04:16:56;;;;;;;1.50;1.10;;;9.70;98.20;;;;;;5009745;28;20483;-79
2021/05/25 04:19:22;;;;;;;1.50;1.07;;;9.70;98.20;;;;;;5017854;28;20467;-79
2021/05/25 04:21:48;;;;;;;1.50;1.10;;;9.70;98.20;;;;;;5011083;28;20500;-78
2021/05/25 04:24:15;;;;;;;1.50;1.00;;;9.70;98.20;;;;;;5017440;28;20460;-78
2021/05/25 04:26:41;;;;;;;1.50;1.10;;;9.70;98.20;;;;;;5007855;28;20603;-80
2021/05/25 04:29:08;;;;;;;1.50;1.10;;;9.60;98.20;;;;;;5024437;28;20461;-77
2021/05/25 04:31:36;;;;;;;1.50;1.10;;;9.60;98.20;;;;;;5014972;28;20483;-78
2021/05/25 04:34:03;;;;;;;1.57;1.23;;;9.60;98.20;;;;;;5024544;28;20468;-77
2021/05/25 04:36:29;;;;;;;1.50;1.10;;;9.60;98.20;;;;;;5012815;28;20508;-78
2021/05/25 04:38:56;;;;;;;1.50;1.10;;;9.60;98.20;;;;;;5024398;28;20489;-76
2021/05/25 04:41:22;;;;;;;1.50;1.10;;;9.60;98.20;;;;;;5003983;28;20483;-77
2021/05/25 04:43:48;;;;;;;1.50;1.10;;;9.60;98.20;;;;;;5018474;28;21119;-78
2021/05/25 04:46:15;;;;;;;1.50;1.10;;;9.70;98.20;;;;;;5004798;28;20485;-78
2021/05/25 04:48:42;;;;;;;1.50;1.20;;;9.70;98.20;;;;;;5021377;28;20878;-77
2021/05/25 04:51:08;;;;;;;1.50;1.20;;;9.80;98.20;;;;;;5002672;28;20502;-78
2021/05/25 04:53:34;;;;;;;1.50;1.20;;;9.90;98.20;;;;;;5018161;28;20460;-78
2021/05/25 04:56:01;;;;;;;1.50;1.10;;;9.90;98.20;;;;;;5002245;28;20903;-77
2021/05/25 04:58:28;;;;;;;1.50;1.10;;;9.90;98.20;;;;;;5021360;28;20475;-78
2021/05/25 05:00:54;;;;;;;1.50;1.10;;;10.00;98.20;;;;;;5003290;28;20494;-79
2021/05/25 05:03:26;;;;;;;1.50;1.10;;;10.00;98.20;;;;;;5028449;28;20491;-78
2021/05/25 05:05:54;;;;;;;1.50;1.10;;;10.10;98.20;;;;;;5004573;28;20484;-79
2021/05/25 05:08:21;;;;;;;1.50;1.10;;;10.00;98.20;;;;;;5023353;28;20464;-80
2021/05/25 05:10:47;;;;;;;1.50;1.10;;;10.00;98.20;;;;;;5001245;28;20471;-78
2021/05/25 05:13:13;;;;;;;1.50;1.10;;;10.00;98.20;;;;;;5017276;28;20963;-77
2021/05/25 05:15:40;;;;;;;1.50;1.13;;;10.00;98.20;;;;;;5009454;28;20483;-78
2021/05/25 05:18:06;;;;;;;1.50;1.00;;;10.10;98.20;;;;;;5013243;28;21015;-77
2021/05/25 05:20:32;;;;;;;1.50;1.10;;;10.10;98.20;;;;;;5008022;28;21025;-77
2021/05/25 05:22:59;;;;;;;1.97;1.87;;;10.20;98.20;;;;;;5014058;28;20900;-78
2021/05/25 05:25:26;;;;;;;1.50;1.03;;;10.20;98.20;;;;;;5008748;28;20484;-77
2021/05/25 05:27:53;;;;;;;1.50;1.13;;;10.20;98.20;;;;;;5011104;28;21068;-77
2021/05/25 05:30:19;;;;;;;1.50;1.10;;;10.20;98.20;;;;;;5010137;28;20464;-78
2021/05/25 05:32:46;;;;;;;1.50;1.13;;;10.20;98.20;;;;;;5016075;28;20713;-78
2021/05/25 05:35:12;;;;;;;1.50;1.20;;;10.10;98.20;;;;;;5009433;28;20492;-78
2021/05/25 05:37:38;;;;;;;1.50;1.00;;;10.10;98.20;;;;;;5015769;28;20606;-76
2021/05/25 05:40:07;;;;;;;1.50;1.10;;;10.10;98.20;;;;;;5011492;28;20488;-77
2021/05/25 05:42:34;;;;;;;1.50;1.10;;;10.10;98.20;;;;;;5011607;28;20483;-76
2021/05/25 05:45:00;;;;;;;1.50;1.10;;;10.00;98.20;;;;;;5009786;28;21046;-77
2021/05/25 05:47:26;;;;;;;1.50;1.20;;;10.00;98.20;;;;;;4998745;28;20490;-77
2021/05/25 05:49:53;;;;;;;1.50;1.17;;;10.00;98.20;;;;;;5010759;28;20483;-77
2021/05/25 05:52:19;;;;;;;1.50;1.10;;;10.00;98.20;;;;;;5011822;28;20506;-77
2021/05/25 05:54:47;;;;;;;1.50;1.10;;;10.00;98.20;;;;;;5009815;28;20464;-77
2021/05/25 05:57:15;;;;;;;1.50;1.10;;;10.00;98.20;;;;;;5009176;28;20759;-77
2021/05/25 05:59:41;;;;;;;1.50;1.20;;;10.00;98.20;;;;;;5010217;28;20540;-77
2021/05/25 06:02:08;;;;;;;1.50;1.10;;;10.00;98.20;;;;;;5003651;28;20475;-77
2021/05/25 06:04:34;;;;;;;1.50;1.10;;;10.00;98.20;;;;;;5010840;28;20472;-76
2021/05/25 06:07:00;;;;;;;1.50;1.07;;;10.00;98.20;;;;;;5008795;28;20487;-76
2021/05/25 06:09:27;;;;;;;1.50;1.10;;;10.00;98.20;;;;;;5011651;28;20830;-76
2021/05/25 06:11:53;;;;;;;1.47;1.10;;;10.00;98.20;;;;;;5007556;28;20979;-76
2021/05/25 06:14:20;;;;;;;1.50;1.10;;;10.00;98.20;;;;;;5015055;28;20452;-77
2021/05/25 06:16:47;;;;;;;1.50;1.10;;;10.00;98.20;;;;;;5005412;28;20578;-76
2021/05/25 06:19:13;;;;;;;1.50;1.10;;;10.00;98.20;;;;;;5011699;28;20589;-76
2021/05/25 06:21:39;;;;;;;1.50;1.10;;;10.10;98.20;;;;;;5005661;28;20505;-76
2021/05/25 06:24:06;;;;;;;1.50;1.10;;;10.10;98.20;;;;;;5019658;28;20468;-77
2021/05/25 06:26:33;;;;;;;1.50;1.10;;;10.20;98.20;;;;;;5008560;28;20544;-78
2021/05/25 06:28:59;;;;;;;1.50;1.03;;;10.30;98.20;;;;;;5019509;28;20911;-78
2021/05/25 06:31:26;;;;;;;1.50;1.10;;;10.40;98.20;;;;;;5003092;28;20866;-78
2021/05/25 06:33:52;;;;;;;1.50;1.10;;;10.40;98.20;;;;;;5022071;28;20896;-77
2021/05/25 06:36:19;;;;;;;1.50;1.10;;;10.50;98.20;;;;;;5005918;28;21073;-77
2021/05/25 06:38:45;;;;;;;1.50;1.10;;;10.50;98.20;;;;;;5020111;28;20807;-77
2021/05/25 06:41:11;;;;;;;1.50;1.10;;;10.50;98.20;;;;;;5003066;28;20482;-77
2021/05/25 06:43:38;;;;;;;1.50;1.30;;;10.40;98.20;;;;;;5019076;28;20981;-77
2021/05/25 06:46:06;;;;;;;1.50;1.10;;;10.40;98.20;;;;;;4991048;28;20492;-79
2021/05/25 06:48:33;;;;;;;1.50;1.10;;;10.30;98.20;;;;;;5021004;28;20615;-78
2021/05/25 06:51:04;;;;;;;1.50;1.20;;;10.30;98.20;;;;;;5006708;28;20458;-80
2021/05/25 06:53:30;;;;;;;1.50;1.00;;;10.20;98.20;;;;;;5019617;28;20464;-80
2021/05/25 06:55:57;;;;;;;1.50;1.10;;;10.20;98.20;;;;;;5002450;28;20714;-79
2021/05/25 06:58:23;;;;;;;1.50;1.10;;;10.30;98.20;;;;;;5024486;28;20471;-80
2021/05/25 07:00:49;;;;;;;1.50;1.00;;;10.40;98.20;;;;;;5007145;28;20472;-81
2021/05/25 07:03:15;;;;;;;1.50;1.10;;;10.50;98.20;;;;;;5030996;28;20509;-81
2021/05/25 07:05:43;;;;;;;1.50;1.20;;;10.50;98.20;;;;;;5016457;28;20587;-80
2021/05/25 07:08:09;;;;;;;1.50;1.10;;;10.50;98.20;;;;;;5019517;28;20509;-80
2021/05/25 07:10:36;;;;;;;1.50;1.10;;;10.50;98.20;;;;;;5013048;28;20571;-81
2021/05/25 07:13:03;;;;;;;1.50;1.10;;;10.50;98.20;;;;;;5015203;28;20471;-81
2021/05/25 07:15:29;;;;;;;1.50;1.10;;;10.50;98.20;;;;;;5012352;28;20575;-80
2021/05/25 07:17:57;;;;;;;1.50;1.10;;;10.60;98.20;;;;;;5017081;28;20487;-80
2021/05/25 07:20:24;;;;;;;1.50;1.00;;;10.70;98.20;;;;;;5011063;28;20483;-80
2021/05/25 07:22:54;;;;;;;1.50;1.10;;;10.90;98.20;;;;;;5016685;28;20924;-80
2021/05/25 07:25:21;;;;;;;1.50;1.00;;;11.10;98.20;;;;;;5009377;28;20923;-82
2021/05/25 07:27:47;;;;;;;1.50;1.10;;;11.20;98.20;;;;;;5016123;28;20493;-80
2021/05/25 07:30:15;;;;;;;1.50;1.00;;;11.20;98.20;;;;;;5013051;28;20504;-82
2021/05/25 07:32:42;;;;;;;1.50;1.00;;;11.10;98.20;;;;;;5015956;28;20483;-82
2021/05/25 07:35:09;;;;;;;1.50;1.00;;;11.00;98.20;;;;;;5011649;28;20498;-83
2021/05/25 07:37:36;;;;;;;1.50;1.10;;;10.70;98.20;;;;;;5014750;28;20506;-83
2021/05/25 07:40:04;;;;;;;1.50;1.00;;;10.60;98.20;;;;;;5018082;28;20491;-81
2021/05/25 07:42:31;;;;;;;1.50;1.10;;;10.50;98.20;;;;;;5016671;28;20914;-81
2021/05/25 07:44:57;;;;;;;1.50;1.10;;;10.50;98.20;;;;;;5014305;28;20580;-80
2021/05/25 07:47:26;;;;;;;1.50;1.00;;;10.50;98.20;;;;;;5014807;28;20525;-80
2021/05/25 07:49:53;;;;;;;1.50;1.00;;;10.60;98.20;;;;;;5015344;28;20983;-78
2021/05/25 07:52:19;;;;;;;1.50;1.10;;;10.70;98.20;;;;;;5009324;28;20552;-78
2021/05/25 07:54:46;;;;;;;1.50;1.10;;;10.90;98.20;;;;;;5014443;28;20499;-81
2021/05/25 07:57:13;;;;;;;1.53;1.10;;;11.10;98.20;;;;;;5009058;28;20487;-82
2021/05/25 07:59:41;;;;;;;1.50;1.00;;;11.30;98.20;;;;;;5016452;28;20472;-79
2021/05/25 08:02:08;;;;;;;1.57;1.00;;;11.60;98.20;;;;;;5009624;28;20554;-79
2021/05/25 08:04:34;;;;;;;1.50;1.00;;;11.90;98.20;;;;;;5010648;28;20465;-80
2021/05/25 08:07:00;;;;;;;1.53;1.03;;;12.30;98.20;;;;;;5009637;28;20881;-80
2021/05/25 08:09:26;;;;;;;1.50;0.93;;;12.60;98.20;;;;;;5013004;28;20456;-81
2021/05/25 08:11:53;;;;;;;1.50;1.00;;;13.00;98.20;;;;;;5010717;28;20844;-76
2021/05/25 08:14:20;;;;;;;1.50;1.00;;;13.30;98.20;;;;;;5021115;28;20464;-81
2021/05/25 08:16:47;;;;;;;1.50;1.00;;;13.30;96.90;;;;;;5008674;28;21340;-77
2021/05/25 08:19:23;;;;;;;1.50;1.00;;;13.40;96.70;;;;;;5017829;28;20465;-78
2021/05/25 08:21:50;;;;;;;1.50;1.00;;;13.30;97.40;;;;;;5009004;28;20999;-77
2021/05/25 08:24:16;;;;;;;1.50;1.00;;;13.20;96.20;;;;;;5015297;28;20849;-77
2021/05/25 08:26:42;;;;;;;1.50;1.00;;;13.10;97.40;;;;;;5009015;28;20509;-77
2021/05/25 08:29:09;;;;;;;1.50;1.10;;;12.90;96.60;;;;;;5018241;28;20964;-77
2021/05/25 08:31:36;;;;;;;1.50;0.90;;;12.90;96.50;;;;;;5005498;28;20483;-76
2021/05/25 08:34:03;;;;;;;1.50;1.00;;;12.90;97.90;;;;;;5014392;28;20468;-77
2021/05/25 08:36:31;;;;;;;1.50;1.00;;;13.00;98.00;;;;;;5004200;28;20490;-77
2021/05/25 08:38:58;;;;;;;1.50;1.10;;;13.00;96.90;;;;;;5015902;28;20975;-76
2021/05/25 08:41:24;;;;;;;1.50;1.00;;;13.10;97.50;;;;;;5007145;28;20957;-78
2021/05/25 08:43:51;;;;;;;1.50;1.00;;;13.10;97.80;;;;;;5014620;28;20521;-77
2021/05/25 08:46:17;;;;;;;1.50;1.00;;;13.20;97.60;;;;;;5002707;28;20522;-78
2021/05/25 08:48:44;;;;;;;1.50;1.00;;;13.30;95.80;;;;;;5019920;28;20475;-78
2021/05/25 08:51:11;;;;;;;1.50;1.00;;;13.50;96.00;;;;;;5003372;28;20988;-80
2021/05/25 08:53:37;;;;;;;1.50;1.00;;;13.60;95.90;;;;;;5019674;28;20999;-78
2021/05/25 08:56:06;;;;;;;1.50;1.00;;;13.70;95.20;;;;;;4999965;28;20519;-76
2021/05/25 08:58:32;;;;;;;1.50;1.00;;;13.80;95.60;;;;;;5021594;28;20561;-79
2021/05/25 09:00:58;;;;;;;1.50;0.90;;;13.80;93.70;;;;;;5005347;28;20471;-79
2021/05/25 09:03:25;;;;;;;1.53;1.10;;;13.80;94.10;;;;;;5018511;28;20464;-77
2021/05/25 09:05:55;;;;;;;1.50;1.00;;;13.70;94.30;;;;;;4997249;28;20488;-77
2021/05/25 09:08:22;;;;;;;1.50;0.90;;;13.60;94.70;;;;;;5020203;28;20471;-77
2021/05/25 09:10:48;;;;;;;1.50;1.00;;;13.70;94.00;;;;;;4997288;28;20977;-77
2021/05/25 09:13:18;;;;;;;1.50;0.90;;;13.70;94.00;;;;;;5018077;28;20515;-77
2021/05/25 09:15:46;;;;;;;1.50;1.00;;;13.80;94.30;;;;;;5007088;28;20491;-77
2021/05/25 09:18:14;;;;;;;1.50;0.97;;;14.00;93.40;;;;;;4996706;28;20511;-78
2021/05/25 09:20:43;;;;;;;1.50;0.90;;;14.00;92.30;;;;;;5006271;28;20600;-77
2021/05/25 09:23:11;;;;;;;1.50;1.00;;;14.00;93.50;;;;;;4997515;28;20484;-77
2021/05/25 09:25:50;;;;;;;1.50;1.00;;;14.10;93.50;;;;;;5008234;28;20487;-75
2021/05/25 09:28:17;;;;;;;1.50;1.00;;;14.10;94.10;;;;;;5014248;28;20912;-77
2021/05/25 09:30:46;;;;;;;1.50;1.00;;;14.20;93.60;;;;;;5008893;28;20460;-76
2021/05/25 09:33:12;;;;;;;1.50;0.90;;;14.20;93.40;;;;;;4996294;28;20882;-78
2021/05/25 09:35:40;;;;;;;1.50;1.00;;;14.40;93.00;;;;;;5007792;28;20492;-76
2021/05/25 09:38:08;;;;;;;1.50;1.00;;;14.50;92.10;;;;;;5013164;28;20519;-78
2021/05/25 09:40:40;;;;;;;1.50;1.00;;;14.80;92.70;;;;;;5008289;28;20472;-77
2021/05/25 09:43:11;;;;;;;1.50;0.90;;;15.10;92.20;;;;;;5015628;28;20480;-80
2021/05/25 09:45:38;;;;;;;1.50;0.90;;;15.40;90.90;;;;;;5008261;28;20492;-77
2021/05/25 09:48:05;;;;;;;1.50;0.90;;;15.60;89.40;;;;;;5015871;28;20487;-77
2021/05/25 09:50:32;;;;;;;1.50;0.90;;;15.40;89.40;;;;;;5010762;28;20614;-80
2021/05/25 09:53:04;;;;;;;1.50;1.00;;;15.10;91.60;;;;;;5012570;28;20479;-79
2021/05/25 09:55:33;;;;;;;1.50;1.00;;;14.60;93.10;;;;;;5012127;28;20492;-79
2021/05/25 09:58:00;;;;;;;1.50;1.00;;;14.10;94.80;;;;;;5020002;28;20513;-79
2021/05/25 10:00:29;;;;;;;1.50;1.00;;;13.70;96.70;;;;;;5016946;28;20874;-80
2021/05/25 10:03:12;;;;;;;1.50;1.00;;;13.40;98.10;;;;;;5020751;28;20479;-81
2021/05/25 10:05:39;;;;;;;1.50;0.90;;;13.10;98.20;;;;;;5013025;28;21125;-79
2021/05/25 10:08:06;;;;;;;1.50;1.00;;;13.00;98.20;;;;;;5020309;28;20605;-76
2021/05/25 10:10:34;;;;;;;1.50;1.00;;;12.90;98.20;;;;;;5015593;28;20715;-79
2021/05/25 10:13:02;;;;;;;1.60;1.20;;;12.80;98.20;;;;;;5020389;28;20917;-81
2021/05/25 10:15:29;;;;;;;1.50;1.00;;;12.70;98.20;;;;;;5011630;28;20530;-80
2021/05/25 10:18:11;;;;;;;1.50;1.00;;;12.60;98.20;;;;;;5020059;28;21033;-80
2021/05/25 10:20:38;;;;;;;1.50;1.00;;;12.50;98.20;;;;;;5013718;28;20463;-79
2021/05/25 10:23:05;;;;;;;1.50;1.00;;;12.30;98.20;;;;;;5011598;28;20475;-80
2021/05/25 10:25:35;;;;;;;1.50;1.00;;;12.20;98.20;;;;;;5013918;28;20567;-79
2021/05/25 10:28:07;;;;;;;1.50;1.00;;;12.00;98.20;;;;;;5028012;28;20483;-80
2021/05/25 10:30:44;;;;;;;1.50;1.00;;;12.00;98.20;;;;;;5014300;28;20471;-81
2021/05/25 10:33:28;;;;;;;1.50;1.00;;;12.10;98.20;;;;;;5004057;28;20558;-80
2021/05/25 10:36:00;;;;;;;1.50;1.00;;;12.20;98.20;;;;;;5006170;28;20586;-81
2021/05/25 10:38:28;;;;;;;1.50;1.00;;;12.40;98.20;;;;;;5023165;28;20463;-81
2021/05/25 10:40:57;;;;;;;1.50;1.00;;;12.50;98.20;;;;;;5003935;28;20464;-79
2021/05/25 10:43:46;;;;;;;1.50;1.00;;;12.60;98.20;;;;;;5023697;28;20464;-79
2021/05/25 10:46:17;;;;;;;1.50;1.10;;;12.70;98.20;;;;;;5003838;28;20549;-79
2021/05/25 10:48:58;;;;;;;1.50;1.00;;;12.80;98.20;;;;;;5019896;28;20975;-76
2021/05/25 10:52:15;;;;;;;1.50;1.00;;;12.80;98.20;;;;;;5005121;28;20562;-77
2021/05/25 10:54:59;;;;;;;1.50;1.00;;;12.50;98.20;;;;;;5012685;28;20521;-78
2021/05/25 10:57:51;;;;;;;1.50;1.00;;;12.40;98.20;;;;;;5005134;28;20482;-75
2021/05/25 11:00:28;;;;;;;1.50;0.90;;;12.40;98.20;;;;;;5007646;28;20464;-79
2021/05/25 11:02:56;;;;;;;1.50;1.00;;;12.50;98.20;;;;;;5009523;28;20881;-81
2021/05/25 11:05:46;;;;;;;1.50;1.00;;;12.50;98.20;;;;;;5011869;28;20903;-81
2021/05/25 11:08:37;;;;;;;1.50;1.00;;;12.60;98.20;;;;;;4997169;28;20484;-79
2021/05/25 11:11:25;;;;;;;1.50;0.97;;;12.70;98.20;;;;;;5000242;28;20481;-79
2021/05/25 11:13:53;;;;;;;1.50;0.90;;;13.20;98.20;;;;;;5018207;28;20468;-81
2021/05/25 11:16:29;;;;;;;1.50;1.00;;;13.60;98.20;;;;;;5008427;28;20479;-79
2021/05/25 11:18:59;;;;;;;1.50;1.00;;;13.90;98.20;;;;;;5021897;28;20468;-84
2021/05/25 11:21:59;;;;;;;1.50;1.00;;;14.00;98.20;;;;;;5007167;28;20502;-83
2021/05/25 11:24:29;;;;;;;1.50;1.00;;;14.00;98.20;;;;;;5019523;28;20472;-79
2021/05/25 11:26:58;;;;;;;1.50;1.00;;;13.90;97.00;;;;;;5009910;28;20491;-79
2021/05/25 11:29:26;;;;;;;1.50;1.00;;;13.80;95.20;;;;;;5019132;28;20500;-81
2021/05/25 11:31:56;;;;;;;1.50;1.00;;;13.70;95.70;;;;;;5012296;28;21066;-80
2021/05/25 11:34:25;;;;;;;1.50;0.90;;;13.60;95.70;;;;;;5017215;28;20471;-81
2021/05/25 11:36:58;;;;;;;1.50;1.00;;;13.70;97.20;;;;;;5008536;28;20491;-79
2021/05/25 11:39:25;;;;;;;1.50;1.00;;;13.80;97.50;;;;;;5012740;28;20468;-81
2021/05/25 11:41:52;;;;;;;1.53;1.00;;;14.20;98.20;;;;;;5003278;28;20487;-79
2021/05/25 11:44:21;;;;;;;1.50;1.00;;;14.80;98.20;;;;;;5011415;28;20468;-80
2021/05/25 11:46:49;;;;;;;1.50;1.00;;;15.30;98.10;;;;;;5004592;28;20487;-78
2021/05/25 11:49:18;;;;;;;1.50;0.97;;;15.80;95.20;;;;;;5013090;28;20464;-79
2021/05/25 11:51:45;;;;;;;1.50;0.90;;;16.30;94.10;;;;;;5005590;28;20475;-78
2021/05/25 11:54:14;;;;;;;1.53;0.90;;;16.70;93.30;;;;;;5014613;28;20480;-80
2021/05/25 11:56:45;;;;;;;1.50;0.90;;;17.00;91.10;;;;;;5008235;28;20620;-78
2021/05/25 11:59:17;;;;;;;1.50;1.00;;;17.20;90.10;;;;;;5021329;28;20692;-79
2021/05/25 12:01:50;;;;;;;1.50;0.93;;;17.20;89.90;;;;;;5009174;28;20491;-81
2021/05/25 12:04:20;;;;;;;1.50;1.00;;;17.10;89.50;;;;;;5013734;28;20550;-81
2021/05/25 12:06:51;;;;;;;1.50;1.00;;;17.00;89.20;;;;;;5006222;28;20494;-79
2021/05/25 12:09:19;;;;;;;1.50;1.00;;;16.80;89.90;;;;;;5015507;28;20559;-80
2021/05/25 12:11:47;;;;;;;1.50;0.90;;;16.50;90.70;;;;;;5006268;28;20487;-79
2021/05/25 12:14:15;;;;;;;1.50;0.93;;;16.30;90.40;;;;;;5014268;28;20551;-76
2021/05/25 12:16:42;;;;;;;1.50;1.00;;;15.70;89.60;;;;;;5005570;28;20601;-79
2021/05/25 12:19:09;;;;;;;1.50;0.90;;;14.80;90.50;;;;;;5018519;28;20958;-80
2021/05/25 12:21:36;;;;;;;1.50;0.90;;;14.00;92.50;;;;;;5008222;28;20481;-80
2021/05/25 12:24:04;;;;;;;1.50;1.10;;;13.50;93.90;;;;;;5018021;28;20522;-81
2021/05/25 12:26:30;;;;;;;1.50;1.00;;;13.10;95.40;;;;;;5004880;28;20491;-76
2021/05/25 12:28:57;;;;;;;1.50;1.00;;;12.70;96.00;;;;;;5016332;28;20544;-82
2021/05/25 12:31:29;;;;;;;1.50;1.00;;;12.40;97.90;;;;;;5005484;28;20521;-81
2021/05/25 12:33:56;;;;;;;1.50;1.00;;;12.20;98.20;;;;;;5014313;28;21211;-80
2021/05/25 12:36:25;;;;;;;1.50;1.00;;;12.00;98.20;;;;;;5003092;28;20522;-77
2021/05/25 12:38:57;;;;;;;1.50;1.00;;;11.80;98.20;;;;;;5018287;28;20476;-79
2021/05/25 12:41:24;;;;;;;1.50;1.10;;;11.70;98.20;;;;;;5004678;28;20485;-79
2021/05/25 12:43:51;;;;;;;1.50;1.00;;;11.60;98.20;;;;;;5019223;28;20789;-78
2021/05/25 12:46:17;;;;;;;1.50;1.00;;;11.50;98.20;;;;;;5002951;28;20483;-79
2021/05/25 12:48:46;;;;;;;1.50;1.00;;;11.40;98.20;;;;;;5021943;28;20507;-81
2021/05/25 12:51:13;;;;;;;1.50;1.00;;;11.40;98.20;;;;;;5003871;28;20578;-79
2021/05/25 12:54:00;;;;;;;1.50;1.00;;;11.50;98.20;;;;;;5019577;28;20488;-79